createdAt,value
2023-01-25T00:02:15.776Z,28.98
2023-01-25T00:04:43.106Z,29.02
2023-01-25T00:07:10.403Z,29.38
2023-01-25T00:09:37.570Z,29.23
2023-01-25T00:12:04.868Z,28.00
2023-01-25T00:14:32.140Z,29.52
2023-01-25T00:16:59.395Z,27.25
2023-01-25T00:19:26.750Z,31.38
2023-01-25T00:21:53.939Z,28.60
2023-01-25T00:24:23.278Z,30.17
2023-01-25T00:26:50.672Z,24.92
2023-01-25T00:29:18.165Z,30.65
2023-01-25T00:31:57.908Z,20.42
2023-01-25T00:34:25.418Z,20.92
2023-01-25T00:36:55.848Z,28.15
2023-01-25T00:39:23.404Z,29.20
2023-01-25T00:41:50.675Z,26.83
2023-01-25T00:44:17.919Z,28.25
2023-01-25T00:46:45.277Z,29.90
2023-01-25T00:49:22.972Z,28.98
2023-01-25T00:51:50.550Z,19.60
2023-01-25T00:54:18.471Z,28.77
2023-01-25T00:56:46.099Z,28.25
2023-01-25T00:59:13.822Z,28.35
2023-01-25T01:01:41.772Z,27.65
2023-01-25T01:04:09.344Z,32.90
2023-01-25T01:06:36.911Z,24.65
2023-01-25T01:09:04.491Z,27.70
2023-01-25T01:11:31.851Z,26.75
2023-01-25T01:13:59.932Z,27.70
2023-01-25T01:16:27.430Z,21.63
2023-01-25T01:18:54.912Z,30.58
2023-01-25T01:21:22.127Z,29.73
2023-01-25T01:23:49.436Z,30.38
2023-01-25T01:26:19.465Z,28.85
2023-01-25T01:28:46.704Z,31.30
2023-01-25T01:31:19.526Z,28.40
2023-01-25T01:33:55.557Z,28.73
2023-01-25T01:36:23.912Z,26.80
2023-01-25T01:38:51.109Z,29.20
2023-01-25T01:41:18.750Z,34.20
2023-01-25T01:43:46.891Z,32.25
2023-01-25T01:46:23.188Z,29.27
2023-01-25T01:48:53.813Z,26.33
2023-01-25T01:53:55.139Z,28.13
2023-01-25T01:56:27.419Z,27.40
2023-01-25T01:58:56.803Z,28.25
2023-01-25T02:01:24.044Z,29.00
2023-01-25T02:03:51.549Z,30.05
2023-01-25T02:06:36.787Z,31.77
2023-01-25T02:09:04.112Z,27.40
2023-01-25T02:11:32.979Z,28.85
2023-01-25T02:14:01.072Z,27.40
2023-01-25T02:16:28.973Z,30.75
2023-01-25T02:18:57.674Z,29.83
2023-01-25T02:21:25.572Z,30.10
2023-01-25T02:24:16.136Z,31.30
2023-01-25T02:26:43.885Z,29.00
2023-01-25T02:29:11.342Z,29.08
2023-01-25T02:31:38.663Z,30.50
2023-01-25T02:34:05.939Z,31.10
2023-01-25T02:36:35.056Z,31.08
2023-01-25T02:39:10.664Z,27.35
2023-01-25T02:41:39.469Z,29.80
2023-01-25T02:44:17.714Z,31.85
2023-01-25T02:46:45.380Z,26.70
2023-01-25T02:49:13.167Z,29.23
2023-01-25T02:51:41.658Z,29.13
2023-01-25T02:54:10.730Z,29.85
2023-01-25T02:56:38.273Z,25.90
2023-01-25T02:59:05.784Z,28.13
2023-01-25T03:01:39.375Z,29.08
2023-01-25T03:04:07.752Z,26.00
2023-01-25T03:06:36.605Z,29.75
2023-01-25T03:09:04.980Z,30.20
2023-01-25T03:11:33.158Z,29.63
2023-01-25T03:14:00.392Z,34.22
2023-01-25T03:16:28.919Z,27.75
2023-01-25T03:18:56.640Z,24.83
2023-01-25T03:21:25.337Z,27.45
2023-01-25T03:24:00.809Z,28.95
2023-01-25T03:26:57.705Z,24.95
2023-01-25T03:29:48.342Z,29.75
2023-01-25T03:32:20.533Z,29.25
2023-01-25T03:34:49.428Z,29.73
2023-01-25T03:37:18.442Z,28.58
2023-01-25T03:39:45.633Z,28.63
2023-01-25T03:42:13.327Z,31.35
2023-01-25T03:44:40.565Z,30.10
2023-01-25T03:47:07.947Z,32.17
2023-01-25T03:49:35.559Z,26.92
2023-01-25T03:52:04.584Z,29.92
2023-01-25T03:54:36.881Z,33.50
2023-01-25T03:57:04.306Z,28.75
2023-01-25T03:59:36.996Z,31.83
2023-01-25T04:02:04.814Z,33.70
2023-01-25T04:04:32.095Z,31.15
2023-01-25T04:06:59.401Z,26.85
2023-01-25T04:09:26.633Z,33.53
2023-01-25T04:11:56.956Z,37.28
2023-01-25T04:14:42.477Z,23.85
2023-01-25T04:17:13.065Z,30.85
2023-01-25T04:22:35.433Z,31.42
2023-01-25T04:25:04.599Z,30.48
2023-01-25T04:27:32.908Z,32.47
2023-01-25T04:30:11.181Z,32.70
2023-01-25T04:32:38.715Z,35.10
2023-01-25T04:35:16.738Z,36.72
2023-01-25T04:37:54.617Z,26.65
2023-01-25T04:40:21.952Z,35.80
2023-01-25T04:42:49.184Z,34.38
2023-01-25T04:45:17.018Z,28.83
2023-01-25T04:47:44.231Z,35.88
2023-01-25T04:50:11.762Z,35.42
2023-01-25T04:52:39.013Z,37.63
2023-01-25T04:55:06.748Z,33.72
2023-01-25T04:57:39.707Z,35.95
2023-01-25T05:00:07.807Z,33.40
2023-01-25T05:02:35.075Z,38.17
2023-01-25T05:05:02.563Z,31.65
2023-01-25T05:07:29.821Z,32.00
2023-01-25T05:09:57.080Z,29.00
2023-01-25T05:12:25.355Z,31.30
2023-01-25T05:14:55.880Z,39.03
2023-01-25T05:17:23.354Z,32.58
2023-01-25T05:19:50.687Z,36.80
2023-01-25T05:22:21.398Z,39.17
2023-01-25T05:24:52.091Z,27.45
2023-01-25T05:27:20.696Z,36.95
2023-01-25T05:29:53.762Z,37.05
2023-01-25T05:32:24.977Z,38.50
2023-01-25T05:34:52.221Z,33.33
2023-01-25T05:37:21.272Z,37.75
2023-01-25T05:39:55.478Z,40.53
2023-01-25T05:42:23.825Z,39.17
2023-01-25T05:44:51.288Z,37.03
2023-01-25T05:47:19.452Z,41.53
2023-01-25T05:49:47.189Z,36.63
2023-01-25T05:52:21.673Z,45.55
2023-01-25T05:54:49.428Z,43.58
2023-01-25T05:57:17.744Z,41.28
2023-01-25T05:59:45.350Z,37.30
2023-01-25T06:04:43.956Z,37.40
2023-01-25T06:07:11.476Z,36.10
2023-01-25T06:09:38.693Z,32.33
2023-01-25T06:12:06.857Z,32.20
2023-01-25T06:14:34.212Z,35.13
2023-01-25T06:17:02.940Z,39.60
2023-01-25T06:19:56.093Z,37.28
2023-01-25T06:22:30.186Z,43.28
2023-01-25T06:24:57.376Z,46.90
2023-01-25T06:27:24.574Z,28.27
2023-01-25T06:29:51.725Z,35.47
2023-01-25T06:32:19.044Z,42.28
2023-01-25T06:34:46.406Z,40.60
2023-01-25T06:37:21.648Z,44.25
2023-01-25T06:39:48.855Z,39.40
2023-01-25T06:42:16.066Z,31.40
2023-01-25T06:44:43.314Z,39.60
2023-01-25T06:47:11.133Z,41.53
2023-01-25T06:49:38.410Z,36.65
2023-01-25T06:52:05.899Z,42.22
2023-01-25T06:54:33.143Z,42.50
2023-01-25T06:57:00.868Z,31.17
2023-01-25T06:59:28.096Z,41.63
2023-01-25T07:01:55.320Z,33.92
2023-01-25T07:04:22.649Z,23.85
2023-01-25T07:06:49.973Z,46.83
2023-01-25T07:09:18.184Z,40.83
2023-01-25T07:11:45.420Z,35.90
2023-01-25T07:14:12.545Z,43.28
2023-01-25T07:16:39.787Z,43.25
2023-01-25T07:19:07.751Z,46.20
2023-01-25T07:21:35.125Z,34.63
2023-01-25T07:24:03.206Z,34.00
2023-01-25T07:26:30.876Z,41.15
2023-01-25T07:28:58.705Z,41.60
2023-01-25T07:31:26.892Z,43.70
2023-01-25T07:33:55.101Z,41.90
2023-01-25T07:36:22.584Z,46.90
2023-01-25T07:38:50.217Z,45.88
2023-01-25T07:41:17.545Z,45.50
2023-01-25T07:43:44.680Z,40.75
2023-01-25T07:46:13.574Z,44.58
2023-01-25T07:48:42.002Z,48.30
2023-01-25T07:51:23.441Z,41.63
2023-01-25T07:53:52.123Z,46.63
2023-01-25T07:56:19.842Z,42.58
2023-01-25T07:58:47.539Z,45.03
2023-01-25T08:01:15.823Z,51.47
2023-01-25T08:03:44.039Z,49.28
2023-01-25T08:06:11.644Z,49.72
2023-01-25T08:08:43.728Z,46.25
2023-01-25T08:11:18.717Z,38.88
2023-01-25T08:13:49.744Z,41.03
2023-01-25T08:16:18.079Z,44.00
2023-01-25T08:18:47.916Z,41.92
2023-01-25T08:21:15.224Z,46.75
2023-01-25T08:23:42.506Z,44.33
2023-01-25T08:26:10.945Z,43.90
2023-01-25T08:28:38.326Z,47.70
2023-01-25T08:31:06.468Z,42.00
2023-01-25T08:33:33.828Z,46.53
2023-01-25T08:36:01.075Z,44.95
2023-01-25T08:38:28.239Z,43.05
2023-01-25T08:40:55.384Z,48.58
2023-01-25T08:43:22.530Z,47.75
2023-01-25T08:45:58.498Z,45.42
2023-01-25T08:48:25.679Z,45.15
2023-01-25T08:50:52.898Z,48.60
2023-01-25T08:53:20.260Z,40.00
2023-01-25T08:55:47.628Z,42.97
2023-01-25T08:58:16.855Z,44.63
2023-01-25T09:00:45.024Z,49.90
2023-01-25T09:03:12.456Z,47.80
2023-01-25T09:05:40.141Z,46.08
2023-01-25T09:08:08.902Z,44.05
2023-01-25T09:10:36.499Z,45.65
2023-01-25T09:13:03.903Z,45.55
2023-01-25T09:15:31.128Z,42.42
2023-01-25T09:17:58.469Z,45.78
2023-01-25T09:20:25.839Z,48.20
2023-01-25T09:22:53.169Z,45.55
2023-01-25T09:25:20.293Z,44.22
2023-01-25T09:27:50.624Z,49.28
2023-01-25T09:30:19.120Z,46.13
2023-01-25T09:32:51.884Z,48.05
2023-01-25T09:35:19.183Z,47.55
2023-01-25T09:37:50.736Z,45.53
2023-01-25T09:40:25.188Z,46.72
2023-01-25T09:42:58.576Z,46.08
2023-01-25T09:45:33.512Z,50.55
2023-01-25T09:48:09.433Z,43.35
2023-01-25T09:50:39.632Z,41.50
2023-01-25T09:53:13.096Z,45.63
2023-01-25T09:55:40.713Z,55.13
2023-01-25T09:58:11.787Z,43.97
2023-01-25T10:00:41.827Z,44.90
2023-01-25T10:03:23.876Z,52.03
2023-01-25T10:05:52.566Z,55.13
2023-01-25T10:08:25.960Z,49.22
2023-01-25T10:10:57.346Z,45.25
2023-01-25T10:13:25.105Z,41.72
2023-01-25T10:15:59.188Z,32.55
2023-01-25T10:18:29.727Z,39.97
2023-01-25T10:20:58.939Z,49.65
2023-01-25T10:23:40.016Z,52.80
2023-01-25T10:26:22.737Z,48.70
2023-01-25T10:28:54.384Z,43.85
2023-01-25T10:31:25.881Z,51.03
2023-01-25T10:33:56.141Z,54.00
2023-01-25T10:36:28.980Z,40.85
2023-01-25T10:39:01.099Z,37.55
2023-01-25T10:41:35.048Z,48.00
2023-01-25T10:44:20.872Z,43.97
2023-01-25T10:47:00.709Z,53.50
2023-01-25T10:49:31.813Z,53.67
2023-01-25T10:52:12.453Z,49.60
2023-01-25T10:54:39.651Z,51.90
2023-01-25T10:57:12.609Z,34.47
2023-01-25T10:59:39.933Z,34.58
2023-01-25T11:02:25.985Z,38.92
2023-01-25T11:04:53.163Z,38.03
2023-01-25T11:07:29.101Z,28.17
2023-01-25T11:09:56.313Z,49.60
2023-01-25T11:12:23.560Z,39.78
2023-01-25T11:14:51.329Z,53.40
2023-01-25T11:17:23.121Z,30.70
2023-01-25T11:19:50.248Z,27.00
2023-01-25T11:22:21.915Z,42.40
2023-01-25T11:24:49.268Z,33.53
2023-01-25T11:27:22.720Z,30.25
2023-01-25T11:30:09.759Z,38.55
2023-01-25T11:32:39.623Z,22.13
2023-01-25T11:35:16.768Z,29.60
2023-01-25T11:37:48.658Z,56.13
2023-01-25T11:40:29.327Z,47.65
2023-01-25T11:43:20.113Z,43.65
2023-01-25T11:45:52.661Z,43.53
2023-01-25T11:48:43.687Z,39.58
2023-01-25T11:51:21.054Z,42.75
2023-01-25T11:53:57.152Z,51.58
2023-01-25T11:56:42.457Z,30.17
2023-01-25T11:59:25.525Z,32.33
2023-01-25T12:02:01.835Z,43.08
2023-01-25T12:04:48.096Z,43.00
2023-01-25T12:07:34.032Z,48.03
2023-01-25T12:10:01.211Z,47.92
2023-01-25T12:12:31.630Z,46.22
2023-01-25T12:15:07.409Z,33.95
2023-01-25T12:17:53.712Z,46.10
2023-01-25T12:20:27.044Z,23.00
2023-01-25T12:23:00.322Z,45.17
2023-01-25T12:25:46.470Z,48.90
2023-01-25T12:28:19.792Z,41.67
2023-01-25T12:31:05.755Z,37.88
2023-01-25T12:33:37.118Z,34.95
2023-01-25T12:36:04.267Z,52.83
2023-01-25T12:38:42.525Z,29.52
2023-01-25T12:41:19.213Z,34.75
2023-01-25T12:43:49.900Z,36.72
2023-01-25T12:46:22.878Z,19.88
2023-01-25T12:48:52.406Z,25.75
2023-01-25T12:51:22.299Z,35.55
2023-01-25T12:53:51.809Z,53.88
2023-01-25T12:56:40.817Z,51.38
2023-01-25T12:59:15.468Z,43.28
2023-01-25T13:01:48.940Z,48.20
2023-01-25T13:04:35.009Z,48.45
2023-01-25T13:07:02.098Z,31.70
2023-01-25T13:09:40.397Z,43.78
2023-01-25T13:12:11.499Z,39.85
2023-01-25T13:14:39.309Z,46.70
2023-01-25T13:17:12.531Z,53.05
2023-01-25T13:19:43.726Z,30.38
2023-01-25T13:22:11.756Z,47.58
2023-01-25T13:24:57.611Z,32.75
2023-01-25T13:27:26.108Z,48.15
2023-01-25T13:29:57.438Z,34.00
2023-01-25T13:32:33.575Z,22.70
2023-01-25T13:35:01.169Z,47.13
2023-01-25T13:37:29.719Z,45.78
2023-01-25T13:40:08.409Z,51.58
2023-01-25T13:42:37.140Z,47.92
2023-01-25T13:45:18.472Z,45.42
2023-01-25T13:47:46.643Z,34.05
2023-01-25T13:50:24.707Z,40.10
2023-01-25T13:52:59.150Z,41.05
2023-01-25T13:55:26.928Z,31.75
2023-01-25T13:57:54.852Z,51.20
2023-01-25T14:00:22.333Z,42.22
2023-01-25T14:02:55.013Z,57.63
2023-01-25T14:05:25.731Z,50.60
2023-01-25T14:10:24.169Z,47.92
2023-01-25T14:12:52.661Z,44.67
2023-01-25T14:15:28.139Z,48.10
2023-01-25T14:18:19.371Z,34.63
2023-01-25T14:20:47.753Z,60.50
2023-01-25T14:23:25.909Z,48.92
2023-01-25T14:25:54.355Z,51.00
2023-01-25T14:28:22.390Z,38.45
2023-01-25T14:30:55.092Z,34.05
2023-01-25T14:33:27.017Z,21.35
2023-01-25T14:35:57.583Z,31.58
2023-01-25T14:38:27.167Z,56.97
2023-01-25T14:40:56.481Z,28.10
2023-01-25T14:43:23.858Z,54.35
2023-01-25T14:45:51.031Z,33.25
2023-01-25T14:48:53.881Z,51.55
2023-01-25T14:51:27.033Z,35.03
2023-01-25T14:54:05.110Z,38.85
2023-01-25T14:56:43.048Z,43.25
2023-01-25T14:59:25.657Z,51.72
2023-01-25T15:01:54.370Z,48.28
2023-01-25T15:04:21.910Z,48.95
2023-01-25T15:06:50.966Z,44.63
2023-01-25T15:09:38.221Z,46.47
2023-01-25T15:12:17.616Z,51.25
2023-01-25T15:14:49.267Z,51.78
2023-01-25T15:17:35.756Z,54.95
2023-01-25T15:20:04.116Z,52.55
2023-01-25T15:22:31.328Z,43.25
2023-01-25T15:24:59.032Z,32.55
2023-01-25T15:27:26.395Z,58.17
2023-01-25T15:29:53.675Z,39.60
2023-01-25T15:32:21.846Z,35.42
2023-01-25T15:34:49.309Z,32.53
2023-01-25T15:37:17.556Z,46.38
2023-01-25T15:39:44.713Z,45.83
2023-01-25T15:42:11.939Z,42.00
2023-01-25T15:44:39.195Z,31.48
2023-01-25T15:47:06.573Z,67.65
2023-01-25T15:49:36.931Z,52.25
2023-01-25T15:52:06.056Z,43.65
2023-01-25T15:54:33.452Z,35.15
2023-01-25T15:57:01.028Z,54.42
2023-01-25T15:59:28.937Z,51.55
2023-01-25T16:01:56.429Z,49.45
2023-01-25T16:04:25.297Z,49.67
2023-01-25T16:06:54.517Z,63.25
2023-01-25T16:09:25.427Z,59.40
2023-01-25T16:11:54.066Z,58.03
2023-01-25T16:14:23.728Z,62.92
2023-01-25T16:16:52.290Z,35.45
2023-01-25T16:19:22.078Z,60.67
2023-01-25T16:21:49.728Z,55.83
2023-01-25T16:24:17.880Z,49.22
2023-01-25T16:26:46.509Z,41.80
2023-01-25T16:29:15.173Z,38.17
2023-01-25T16:31:42.729Z,55.95
2023-01-25T16:34:10.228Z,35.28
2023-01-25T16:36:39.466Z,58.08
2023-01-25T16:39:10.491Z,66.32
2023-01-25T16:41:46.983Z,51.15
2023-01-25T16:44:14.548Z,42.72
2023-01-25T16:46:42.820Z,42.33
2023-01-25T16:49:14.982Z,55.22
2023-01-25T16:51:42.590Z,49.10
2023-01-25T16:54:11.784Z,53.55
2023-01-25T16:56:39.337Z,57.25
2023-01-25T16:59:07.619Z,53.17
2023-01-25T17:01:35.206Z,59.33
2023-01-25T17:04:02.610Z,34.75
2023-01-25T17:06:31.116Z,56.70
2023-01-25T17:09:20.560Z,58.05
2023-01-25T17:11:48.999Z,33.75
2023-01-25T17:14:18.712Z,54.97
2023-01-25T17:16:48.425Z,58.83
2023-01-25T17:19:17.168Z,46.58
2023-01-25T17:21:44.855Z,42.13
2023-01-25T17:24:13.851Z,57.92
2023-01-25T17:26:41.226Z,38.10
2023-01-25T17:29:10.108Z,53.72
2023-01-25T17:31:38.022Z,67.35
2023-01-25T17:34:07.377Z,61.53
2023-01-25T17:36:35.134Z,54.38
2023-01-25T17:39:03.172Z,48.47
2023-01-25T17:41:30.509Z,41.92
2023-01-25T17:43:57.826Z,38.78
2023-01-25T17:46:27.847Z,41.80
2023-01-25T17:48:55.948Z,56.80
2023-01-25T17:51:24.968Z,60.60
2023-01-25T17:53:53.112Z,60.47
2023-01-25T17:56:20.878Z,54.72
2023-01-25T17:58:48.168Z,52.28
2023-01-25T18:01:16.709Z,48.00
2023-01-25T18:03:44.527Z,55.47
2023-01-25T18:06:12.735Z,44.55
2023-01-25T18:08:44.593Z,57.58
2023-01-25T18:11:15.236Z,52.65
2023-01-25T18:13:44.106Z,39.92
2023-01-25T18:16:12.249Z,42.80
2023-01-25T18:18:40.180Z,36.88
2023-01-25T18:21:09.769Z,50.10
2023-01-25T18:23:37.693Z,46.40
2023-01-25T18:26:06.642Z,50.50
2023-01-25T18:28:34.520Z,47.88
2023-01-25T18:31:03.179Z,69.22
2023-01-25T18:33:30.760Z,44.45
2023-01-25T18:36:01.277Z,67.75
2023-01-25T18:41:16.113Z,65.80
2023-01-25T18:43:43.335Z,35.90
2023-01-25T18:46:11.678Z,40.63
2023-01-25T18:48:39.965Z,28.42
2023-01-25T18:51:09.196Z,26.95
2023-01-25T18:53:37.668Z,66.55
2023-01-25T18:56:12.954Z,81.35
2023-01-25T18:58:40.981Z,32.17
2023-01-25T19:01:09.580Z,59.45
2023-01-25T19:03:37.042Z,57.28
2023-01-25T19:06:04.945Z,31.05
2023-01-25T19:08:43.273Z,42.15
2023-01-25T19:11:13.968Z,36.10
2023-01-25T19:13:41.827Z,64.93
2023-01-25T19:16:19.957Z,39.63
2023-01-25T19:18:48.789Z,32.60
2023-01-25T19:21:24.798Z,60.78
2023-01-25T19:23:52.779Z,45.13
2023-01-25T19:26:21.189Z,70.13
2023-01-25T19:28:49.488Z,62.28
2023-01-25T19:31:24.156Z,58.20
2023-01-25T19:34:00.467Z,57.15
2023-01-25T19:36:28.615Z,56.55
2023-01-25T19:38:57.508Z,46.33
2023-01-25T19:41:25.995Z,76.97
2023-01-25T19:43:57.363Z,63.15
2023-01-25T19:46:26.876Z,53.15
2023-01-25T19:48:54.860Z,45.63
2023-01-25T19:51:23.609Z,68.63
2023-01-25T19:53:55.570Z,64.22
2023-01-25T19:56:22.905Z,62.50
2023-01-25T19:58:51.085Z,73.05
2023-01-25T20:01:19.568Z,61.90
2023-01-25T20:03:47.324Z,53.15
2023-01-25T20:06:15.075Z,112.25
2023-01-25T20:08:43.872Z,69.53
2023-01-25T20:11:19.727Z,84.90
2023-01-25T20:13:47.458Z,62.28
2023-01-25T20:16:17.237Z,53.15
2023-01-25T20:18:45.415Z,67.65
2023-01-25T20:21:13.963Z,44.05
2023-01-25T20:23:42.318Z,69.13
2023-01-25T20:26:15.911Z,56.53
2023-01-25T20:28:43.651Z,104.22
2023-01-25T20:31:27.503Z,83.85
2023-01-25T20:33:56.214Z,46.60
2023-01-25T20:36:23.625Z,80.95
2023-01-25T20:38:51.194Z,91.03
2023-01-25T20:41:19.144Z,72.07
2023-01-25T20:43:50.915Z,84.60
2023-01-25T20:46:18.611Z,87.00
2023-01-25T20:48:46.074Z,80.05
2023-01-25T20:51:16.283Z,87.57
2023-01-25T20:53:44.297Z,63.55
2023-01-25T20:56:12.721Z,77.90
2023-01-25T20:58:40.300Z,84.32
2023-01-25T21:01:14.835Z,47.85
2023-01-25T21:03:42.375Z,102.25
2023-01-25T21:06:09.582Z,96.70
2023-01-25T21:08:37.102Z,76.32
2023-01-25T21:11:04.472Z,64.50
2023-01-25T21:13:31.785Z,88.78
2023-01-25T21:16:36.531Z,52.17
2023-01-25T21:25:15.693Z,53.75
2023-01-25T21:27:46.308Z,38.88
2023-01-25T21:30:15.833Z,87.78
2023-01-25T21:32:43.441Z,49.75
2023-01-25T21:35:11.355Z,56.63
2023-01-25T21:37:39.181Z,52.65
2023-01-25T21:40:06.831Z,70.75
2023-01-25T21:42:34.512Z,41.28
2023-01-25T21:45:20.551Z,69.25
2023-01-25T21:47:47.855Z,61.67
2023-01-25T21:50:33.789Z,65.13
2023-01-25T21:53:01.091Z,63.40
2023-01-25T21:55:28.317Z,48.55
2023-01-25T21:57:55.569Z,55.92
2023-01-25T22:00:24.116Z,60.42
2023-01-25T22:02:52.111Z,60.65
2023-01-25T22:05:19.556Z,86.32
2023-01-25T22:07:48.275Z,76.07
2023-01-25T22:10:18.444Z,65.82
2023-01-25T22:12:46.391Z,45.38
2023-01-25T22:15:29.704Z,62.42
2023-01-25T22:18:00.788Z,66.35
2023-01-25T22:20:28.654Z,57.80
2023-01-25T22:22:58.576Z,66.18
2023-01-25T22:25:25.920Z,61.45
2023-01-25T22:27:56.222Z,65.85
2023-01-25T22:30:23.688Z,54.55
2023-01-25T22:32:53.186Z,45.38
2023-01-25T22:35:20.749Z,48.65
2023-01-25T22:37:48.536Z,41.47
2023-01-25T22:40:16.632Z,77.57
2023-01-25T22:42:43.924Z,60.15
2023-01-25T22:45:14.784Z,61.42
2023-01-25T22:47:43.616Z,39.72
2023-01-25T22:50:11.477Z,87.32
2023-01-25T22:52:38.967Z,88.85
2023-01-25T22:55:07.723Z,113.13
2023-01-25T22:57:35.278Z,82.63
2023-01-25T23:00:02.574Z,75.88
2023-01-25T23:02:47.733Z,82.45
2023-01-25T23:05:15.392Z,55.45
2023-01-25T23:07:42.779Z,73.07
2023-01-25T23:10:10.805Z,77.90
2023-01-25T23:12:38.405Z,46.65
2023-01-25T23:15:07.323Z,54.90
2023-01-25T23:17:53.130Z,97.05
2023-01-25T23:20:20.664Z,28.75
2023-01-25T23:22:48.015Z,115.00
2023-01-25T23:25:15.375Z,86.80
2023-01-25T23:27:42.601Z,111.25
2023-01-25T23:30:10.707Z,119.13
2023-01-25T23:32:38.410Z,89.55
2023-01-25T23:35:06.299Z,41.33
2023-01-25T23:37:33.614Z,109.90
2023-01-25T23:40:00.911Z,81.05
2023-01-25T23:42:28.273Z,69.72
2023-01-25T23:44:55.612Z,112.90
2023-01-25T23:47:22.936Z,96.93
2023-01-25T23:49:50.245Z,103.63
2023-01-25T23:52:17.579Z,75.55
2023-01-25T23:54:44.996Z,114.05
2023-01-25T23:57:12.175Z,106.97
2023-01-25T23:59:39.465Z,120.70
